Home > Products > Valid Products > TAF

000
FTPA31 PHFO 260800 AAA
TAFHNL
TAF AMD
PHNL 260833Z 2609/2712 03009KT P6SM FEW030
     FM262000 04014G22KT P6SM FEW035 SCT050
     FM270500 04010G15KT P6SM FEW030 SCT045=



000
FTPA31 PHFO 260800 AAA
TAFHNL
TAF AMD
PHNL 260833Z 2609/2712 03009KT P6SM FEW030
     FM262000 04014G22KT P6SM FEW035 SCT050
     FM270500 04010G15KT P6SM FEW030 SCT045=



000
FTPA31 PHFO 260500
TAFHNL
TAF
PHNL 260520Z 2606/2712 03009KT P6SM FEW030 SCT050
     FM262000 04014G22KT P6SM FEW035 SCT050
     FM270500 04010G15KT P6SM FEW030 SCT045=



000
FTPA31 PHFO 260500
TAFHNL
TAF
PHNL 260520Z 2606/2712 03009KT P6SM FEW030 SCT050
     FM262000 04014G22KT P6SM FEW035 SCT050
     FM270500 04010G15KT P6SM FEW030 SCT045=



000
FTPA31 PHFO 260200 AAA
TAFHNL
TAF AMD
PHNL 260235Z 2603/2706 03013G21KT P6SM FEW030 SCT050
     FM260700 03009KT P6SM FEW030 SCT045
     FM262000 04014G22KT P6SM SCT030 SCT050
     FM270500 04010KT P6SM FEW030 SCT045=



000
FTPA31 PHFO 260200 AAA
TAFHNL
TAF AMD
PHNL 260235Z 2603/2706 03013G21KT P6SM FEW030 SCT050
     FM260700 03009KT P6SM FEW030 SCT045
     FM262000 04014G22KT P6SM SCT030 SCT050
     FM270500 04010KT P6SM FEW030 SCT045=



000
FTPA31 PHFO 252300
TAFHNL
TAF
PHNL 252339Z 2600/2706 03013G21KT P6SM FEW030 SCT050
     FM260700 03009KT P6SM FEW030 SCT045
     FM262000 04014G22KT P6SM SCT030 SCT050
     FM270500 04010KT P6SM FEW030 SCT045=



000
FTPA31 PHFO 252300
TAFHNL
TAF
PHNL 252339Z 2600/2706 03013G21KT P6SM FEW030 SCT050
     FM260700 03009KT P6SM FEW030 SCT045
     FM262000 04014G22KT P6SM SCT030 SCT050
     FM270500 04010KT P6SM FEW030 SCT045=



000
FTPA31 PHFO 252100 AAA
TAFHNL
TAF AMD
PHNL 252105Z 2521/2624 03013G21KT P6SM FEW030 SCT060
     FM260700 03009KT P6SM FEW030 SCT050
     FM262000 04014G22KT P6SM SCT030 SCT050=



000
FTPA31 PHFO 252100 AAA
TAFHNL
TAF AMD
PHNL 252105Z 2521/2624 03013G21KT P6SM FEW030 SCT060
     FM260700 03009KT P6SM FEW030 SCT050
     FM262000 04014G22KT P6SM SCT030 SCT050=



000
FTPA31 PHFO 251700
TAFHNL
TAF
PHNL 251737Z 2518/2624 01005KT P6SM FEW030 BKN060
     FM252000 03013G21KT P6SM FEW030 BKN060
     FM260700 03009KT P6SM FEW030 SCT050
     FM262000 04014G22KT P6SM SCT030 SCT050=



000
FTPA31 PHFO 251700
TAFHNL
TAF
PHNL 251737Z 2518/2624 01005KT P6SM FEW030 BKN060
     FM252000 03013G21KT P6SM FEW030 BKN060
     FM260700 03009KT P6SM FEW030 SCT050
     FM262000 04014G22KT P6SM SCT030 SCT050=



000
FTPA31 PHFO 251400 AAA
TAFHNL
TAF AMD
PHNL 251500Z 2515/2618 01005KT P6SM FEW030 BKN050
     FM252000 03012KT P6SM FEW030 SCT050
      TEMPO 2520/2524 03012G20KT
     FM260700 03010KT P6SM FEW030 SCT050=



000
FTPA31 PHFO 251400 AAA
TAFHNL
TAF AMD
PHNL 251500Z 2515/2618 01005KT P6SM FEW030 BKN050
     FM252000 03012KT P6SM FEW030 SCT050
      TEMPO 2520/2524 03012G20KT
     FM260700 03010KT P6SM FEW030 SCT050=



000
FTPA31 PHFO 251100
TAFHNL
TAF
PHNL 251139Z 2512/2618 01005KT P6SM FEW030 BKN050
     FM252000 03012KT P6SM FEW030 SCT050
      TEMPO 2520/2524 03012G20KT
     FM260700 03010KT P6SM FEW030 SCT050=



000
FTPA31 PHFO 250800 AAA
TAFHNL
TAF AMD
PHNL 250900Z 2509/2612 36008KT P6SM FEW030 BKN060
     FM252000 03012G20KT P6SM FEW030 SCT060
     FM260600 03010KT P6SM FEW030 SCT060=



000
FTPA31 PHFO 250800 AAA
TAFHNL
TAF AMD
PHNL 250900Z 2509/2612 36008KT P6SM FEW030 BKN060
     FM252000 03012G20KT P6SM FEW030 SCT060
     FM260600 03010KT P6SM FEW030 SCT060=



000
FTPA31 PHFO 250500
TAFHNL
TAF
PHNL 250538Z 2506/2612 36008KT P6SM FEW020 SCT060
      TEMPO 2506/2510 36010G18KT
     FM252000 03012G20KT P6SM FEW030 SCT060
     FM260600 03010KT P6SM FEW030 SCT060=



000
FTPA31 PHFO 250200 AAA
TAFHNL
TAF AMD
PHNL 250255Z 2503/2606 35014G22KT P6SM SCT025 SCT050 BKN060
     FM250500 01008G15KT P6SM FEW030 SCT060
     FM252000 03012G20KT P6SM FEW030 SCT060=



000
FTPA31 PHFO 250200 AAA
TAFHNL
TAF AMD
PHNL 250255Z 2503/2606 35014G22KT P6SM SCT025 SCT050 BKN060
     FM250500 01008G15KT P6SM FEW030 SCT060
     FM252000 03012G20KT P6SM FEW030 SCT060=



000
FTPA31 PHFO 242300
TAFHNL
TAF
PHNL 242339Z 2500/2606 34014G22KT P6SM SCT025 SCT050 OVC060
     FM250500 01008G15KT P6SM FEW030 SCT060
     FM252000 03012G20KT P6SM FEW030 SCT060=



000
FTPA31 PHFO 242300
TAFHNL
TAF
PHNL 242339Z 2500/2606 34014G22KT P6SM SCT025 SCT050 OVC060
     FM250500 01008G15KT P6SM FEW030 SCT060
     FM252000 03012G20KT P6SM FEW030 SCT060=



000
FTPA31 PHFO 242000 AAB
TAFHNL
TAF AMD
PHNL 242055Z 2421/2524 34014G22KT P6SM SCT030 BKN060 OVC080
     FM250500 01008KT P6SM FEW050
     FM252000 03012G20KT P6SM FEW030 SCT050=



000
FTPA31 PHFO 241900 AAA
TAFHNL
TAF AMD
PHNL 241901Z 2419/2524 35014G22KT P6SM SCT030 BKN060
     FM250500 01008KT P6SM FEW050
     FM252000 03012G20KT P6SM FEW030 SCT050=



000
FTPA31 PHFO 241900 AAA
TAFHNL
TAF AMD
PHNL 241901Z 2419/2524 35014G22KT P6SM SCT030 BKN060
     FM250500 01008KT P6SM FEW050
     FM252000 03012G20KT P6SM FEW030 SCT050=



000
FTPA31 PHFO 241700 RRA
TAFHNL
TAF
PHNL 241741Z 2418/2524 35012G20KT P6SM VCSH SCT030 BKN060
      TEMPO 2418/2420 -RA BKN025
     FM242000 01014G22KT P6SM SCT030 BKN060
     FM250500 01008KT P6SM FEW050
     FM252000 03012G20KT P6SM FEW030 SCT050=



000
FTPA31 PHFO 241700 RRA
TAFHNL
TAF
PHNL 241741Z 2418/2524 35012G20KT P6SM VCSH SCT030 BKN060
      TEMPO 2418/2420 -RA BKN025
     FM242000 01014G22KT P6SM SCT030 BKN060
     FM250500 01008KT P6SM FEW050
     FM252000 03012G20KT P6SM FEW030 SCT050=



000
FTPA31 PHFO 241500 AAA
TAFHNL
TAF AMD
PHNL 241503Z 2415/2518 26007KT P6SM VCSH SCT025 BKN050
     FM241600 34011KT P6SM VCSH SCT025 OVC050
      TEMPO 2416/2419 34013G19KT 3SM SHRA BR BKN025
     FM242000 36014G20KT P6SM SCT030 BKN050
     FM242300 01018G26KT P6SM SCT050
     FM250500 01011KT P6SM FEW050=



000
FTPA31 PHFO 241500 AAA
TAFHNL
TAF AMD
PHNL 241503Z 2415/2518 26007KT P6SM VCSH SCT025 BKN050
     FM241600 34011KT P6SM VCSH SCT025 OVC050
      TEMPO 2416/2419 34013G19KT 3SM SHRA BR BKN025
     FM242000 36014G20KT P6SM SCT030 BKN050
     FM242300 01018G26KT P6SM SCT050
     FM250500 01011KT P6SM FEW050=



000
FTPA31 PHFO 241100
TAFHNL
TAF
PHNL 241138Z 2412/2518 26006KT P6SM VCSH SCT030 BKN050
     FM241700 30008KT P6SM VCSH SCT025 OVC050
      TEMPO 2417/2420 30012G18KT 5SM SHRA BR BKN025
     FM242000 36012G18KT P6SM SCT030 BKN050
     FM242300 01018G26KT P6SM SCT050
     FM250500 01011KT P6SM FEW050=



000
FTPA31 PHFO 241100
TAFHNL
TAF
PHNL 241138Z 2412/2518 26006KT P6SM VCSH SCT030 BKN050
     FM241700 30008KT P6SM VCSH SCT025 OVC050
      TEMPO 2417/2420 30012G18KT 5SM SHRA BR BKN025
     FM242000 36012G18KT P6SM SCT030 BKN050
     FM242300 01018G26KT P6SM SCT050
     FM250500 01011KT P6SM FEW050=



000
FTPA31 PHFO 240900 AAA
TAFHNL
TAF AMD
PHNL 240905Z 2409/2512 26005KT P6SM VCSH SCT030 SCT050 BKN070
     FM241700 33010KT P6SM VCSH SCT030 OVC050
      TEMPO 2417/2420 5SM SHRA BR BKN030
     FM242000 36012G18KT P6SM SCT030 BKN050
     FM242200 01018G26KT P6SM SCT050
     FM250500 01012G17KT P6SM FEW050=



000
FTPA31 PHFO 240900 AAA
TAFHNL
TAF AMD
PHNL 240905Z 2409/2512 26005KT P6SM VCSH SCT030 SCT050 BKN070
     FM241700 33010KT P6SM VCSH SCT030 OVC050
      TEMPO 2417/2420 5SM SHRA BR BKN030
     FM242000 36012G18KT P6SM SCT030 BKN050
     FM242200 01018G26KT P6SM SCT050
     FM250500 01012G17KT P6SM FEW050=



000
FTPA31 PHFO 240500
TAFHNL
TAF
PHNL 240540Z 2406/2512 23007KT P6SM FEW030 SCT050 BKN070
     FM241700 33010KT P6SM VCSH SCT030 OVC050
      TEMPO 2417/2420 5SM SHRA BR BKN030
     FM242000 36012G18KT P6SM SCT030 BKN050
     FM242200 01018G26KT P6SM SCT050
     FM250500 01012G17KT P6SM FEW050=



000
FTPA31 PHFO 240500
TAFHNL
TAF
PHNL 240540Z 2406/2512 23007KT P6SM FEW030 SCT050 BKN070
     FM241700 33010KT P6SM VCSH SCT030 OVC050
      TEMPO 2417/2420 5SM SHRA BR BKN030
     FM242000 36012G18KT P6SM SCT030 BKN050
     FM242200 01018G26KT P6SM SCT050
     FM250500 01012G17KT P6SM FEW050=



000
FTPA31 PHFO 240300 AAA
TAFHNL
TAF AMD
PHNL 240305Z 2403/2506 21008KT P6SM SCT030 BKN050
     FM240600 25005KT P6SM FEW030
     FM241500 33008KT P6SM VCSH SCT030 OVC050
     FM242100 36012G18KT P6SM SCT030 BKN050=



000
FTPA31 PHFO 240300 AAA
TAFHNL
TAF AMD
PHNL 240305Z 2403/2506 21008KT P6SM SCT030 BKN050
     FM240600 25005KT P6SM FEW030
     FM241500 33008KT P6SM VCSH SCT030 OVC050
     FM242100 36012G18KT P6SM SCT030 BKN050=



000
FTPA31 PHFO 232300
TAFHNL
TAF
PHNL 232338Z 2400/2506 17007KT P6SM FEW030 SCT050
     FM240100 21008G15KT P6SM SCT030 BKN050
     FM240600 25005KT P6SM FEW030
     FM241500 33008KT P6SM VCSH SCT030 OVC050
     FM242100 36012G18KT P6SM SCT030 BKN050=



000
FTPA31 PHFO 232100 AAA
TAFHNL
TAF AMD
PHNL 232109Z 2321/2424 17007KT P6SM FEW030 SCT050
     FM240100 21008G15KT P6SM SCT030 BKN050
     FM240600 25005KT P6SM FEW030
     FM241900 29008KT P6SM VCSH FEW030 BKN050
     FM242100 33009KT P6SM SCT050=



000
FTPA31 PHFO 231700 RRA
TAFHNL
TAF
PHNL 231741Z 2318/2424 VRB04KT P6SM SKC
     FM232000 17007KT P6SM FEW030 SCT050
     FM240100 21008G15KT P6SM SCT030 BKN050
     FM240600 25005KT P6SM FEW030
     FM241900 29008KT P6SM VCSH FEW030 BKN050
     FM242100 33009KT P6SM SCT050=



000
FTPA31 PHFO 231500 AAA
TAFHNL
TAF AMD
PHNL 231505Z 2315/2418 33004KT P6SM FEW030 SCT050
     FM232100 20008KT P6SM FEW030 SCT050
     FM240300 25006KT P6SM FEW030 SCT050
     FM241500 29006KT P6SM VCSH SCT025 BKN045=



000
FTPA31 PHFO 231500 AAA
TAFHNL
TAF AMD
PHNL 231505Z 2315/2418 33004KT P6SM FEW030 SCT050
     FM232100 20008KT P6SM FEW030 SCT050
     FM240300 25006KT P6SM FEW030 SCT050
     FM241500 29006KT P6SM VCSH SCT025 BKN045=



000
FTPA31 PHFO 231100
TAFHNL
TAF
PHNL 231139Z 2312/2418 33004KT P6SM FEW030 SCT050
     FM232100 20008KT P6SM FEW030 SCT050
     FM240300 25006KT P6SM FEW030 SCT050
     FM241500 29006KT P6SM VCSH SCT025 BKN045=



000
FTPA31 PHFO 231100
TAFHNL
TAF
PHNL 231139Z 2312/2418 33004KT P6SM FEW030 SCT050
     FM232100 20008KT P6SM FEW030 SCT050
     FM240300 25006KT P6SM FEW030 SCT050
     FM241500 29006KT P6SM VCSH SCT025 BKN045=



    US Dept of Commerce
    National Oceanic and Atmospheric Administration
    National Weather Service
    1325 East West Highway
    Silver Spring, MD 20910
    Page Author: NWS Internet Services Team
Disclaimer
Information Quality
Credits
Glossary
Privacy Policy
Freedom of Information Act (FOIA)
About Us
Career Opportunities